sensor_id;sensor_type;location;lat;lon;timestamp;pressure;altitude;pressure_sealevel;temperature;humidity
70976;BME280;58635;51.198;6.010;2023-03-25T00:00:57;100170.50;;;13.07;58.54
70976;BME280;58635;51.198;6.010;2023-03-25T00:03:28;100171.19;;;13.02;58.57
70976;BME280;58635;51.198;6.010;2023-03-25T00:05:55;100171.50;;;12.94;58.82
70976;BME280;58635;51.198;6.010;2023-03-25T00:08:22;100170.72;;;12.94;58.80
70976;BME280;58635;51.198;6.010;2023-03-25T00:10:58;100178.28;;;12.95;58.67
70976;BME280;58635;51.198;6.010;2023-03-25T00:13:24;100174.09;;;12.94;58.84
70976;BME280;58635;51.198;6.010;2023-03-25T00:15:51;100176.13;;;12.92;58.69
70976;BME280;58635;51.198;6.010;2023-03-25T00:18:19;100170.94;;;12.92;58.70
70976;BME280;58635;51.198;6.010;2023-03-25T00:20:45;100167.91;;;12.95;58.77
70976;BME280;58635;51.198;6.010;2023-03-25T00:23:14;100171.06;;;12.97;58.52
70976;BME280;58635;51.198;6.010;2023-03-25T00:25:40;100170.25;;;12.97;58.43
70976;BME280;58635;51.198;6.010;2023-03-25T00:28:09;100170.03;;;12.98;58.38
70976;BME280;58635;51.198;6.010;2023-03-25T00:30:37;100172.63;;;12.98;58.07
70976;BME280;58635;51.198;6.010;2023-03-25T00:33:02;100177.81;;;12.98;58.30
70976;BME280;58635;51.198;6.010;2023-03-25T00:35:28;100172.19;;;13.01;58.11
70976;BME280;58635;51.198;6.010;2023-03-25T00:37:54;100183.56;;;13.00;57.78
70976;BME280;58635;51.198;6.010;2023-03-25T00:40:25;100185.16;;;13.01;58.18
70976;BME280;58635;51.198;6.010;2023-03-25T00:42:53;100178.38;;;13.00;57.69
70976;BME280;58635;51.198;6.010;2023-03-25T00:45:18;100177.81;;;12.98;57.67
70976;BME280;58635;51.198;6.010;2023-03-25T00:47:44;100180.75;;;13.02;57.06
70976;BME280;58635;51.198;6.010;2023-03-25T00:50:09;100184.16;;;13.02;57.17
70976;BME280;58635;51.198;6.010;2023-03-25T00:52:35;100179.97;;;13.01;57.06
70976;BME280;58635;51.198;6.010;2023-03-25T00:55:01;100184.25;;;12.96;57.18
70976;BME280;58635;51.198;6.010;2023-03-25T00:57:27;100187.88;;;12.95;57.02
70976;BME280;58635;51.198;6.010;2023-03-25T00:59:53;100183.47;;;12.95;57.16
70976;BME280;58635;51.198;6.010;2023-03-25T01:02:18;100181.09;;;12.94;57.06
70976;BME280;58635;51.198;6.010;2023-03-25T01:04:46;100187.19;;;12.99;56.97
70976;BME280;58635;51.198;6.010;2023-03-25T01:07:14;100178.63;;;12.99;56.97
70976;BME280;58635;51.198;6.010;2023-03-25T01:09:40;100179.19;;;13.01;56.79
70976;BME280;58635;51.198;6.010;2023-03-25T01:12:06;100188.78;;;13.00;56.73
70976;BME280;58635;51.198;6.010;2023-03-25T01:14:32;100184.25;;;12.96;56.82
70976;BME280;58635;51.198;6.010;2023-03-25T01:16:57;100185.72;;;12.92;56.91
70976;BME280;58635;51.198;6.010;2023-03-25T01:19:23;100174.75;;;12.89;56.94
70976;BME280;58635;51.198;6.010;2023-03-25T01:21:49;100177.56;;;12.88;56.83
70976;BME280;58635;51.198;6.010;2023-03-25T01:24:15;100178.97;;;12.91;56.83
70976;BME280;58635;51.198;6.010;2023-03-25T01:26:42;100166.78;;;12.91;56.89
70976;BME280;58635;51.198;6.010;2023-03-25T01:29:16;100167.19;;;12.88;56.83
70976;BME280;58635;51.198;6.010;2023-03-25T01:31:43;100168.22;;;12.87;57.03
70976;BME280;58635;51.198;6.010;2023-03-25T01:34:08;100171.03;;;12.85;56.93
70976;BME280;58635;51.198;6.010;2023-03-25T01:36:34;100169.69;;;12.83;56.99
70976;BME280;58635;51.198;6.010;2023-03-25T01:39:02;100179.59;;;12.86;56.95
70976;BME280;58635;51.198;6.010;2023-03-25T01:41:31;100166.63;;;12.86;57.05
70976;BME280;58635;51.198;6.010;2023-03-25T01:46:39;100157.59;;;12.88;56.82
70976;BME280;58635;51.198;6.010;2023-03-25T01:49:11;100160.88;;;12.84;56.80
70976;BME280;58635;51.198;6.010;2023-03-25T01:51:42;100156.22;;;12.74;57.07
70976;BME280;58635;51.198;6.010;2023-03-25T01:54:11;100160.28;;;12.70;57.23
70976;BME280;58635;51.198;6.010;2023-03-25T01:56:39;100151.16;;;12.68;57.42
70976;BME280;58635;51.198;6.010;2023-03-25T01:59:07;100150.22;;;12.62;57.43
70976;BME280;58635;51.198;6.010;2023-03-25T02:01:34;100151.47;;;12.59;57.55
70976;BME280;58635;51.198;6.010;2023-03-25T02:04:01;100155.28;;;12.57;57.61
70976;BME280;58635;51.198;6.010;2023-03-25T02:06:54;100156.50;;;12.54;57.36
70976;BME280;58635;51.198;6.010;2023-03-25T02:09:22;100153.34;;;12.52;57.58
70976;BME280;58635;51.198;6.010;2023-03-25T02:11:48;100157.41;;;12.48;57.56
70976;BME280;58635;51.198;6.010;2023-03-25T02:14:18;100164.41;;;12.48;57.64
70976;BME280;58635;51.198;6.010;2023-03-25T02:19:58;100162.09;;;12.40;57.95
70976;BME280;58635;51.198;6.010;2023-03-25T02:30:45;100167.00;;;12.29;58.22
70976;BME280;58635;51.198;6.010;2023-03-25T02:44:05;100159.25;;;12.29;58.74
70976;BME280;58635;51.198;6.010;2023-03-25T02:46:32;100164.41;;;12.29;58.70
70976;BME280;58635;51.198;6.010;2023-03-25T02:49:15;100157.66;;;12.28;58.75
70976;BME280;58635;51.198;6.010;2023-03-25T02:51:49;100160.47;;;12.27;59.07
70976;BME280;58635;51.198;6.010;2023-03-25T02:54:18;100153.03;;;12.30;59.22
70976;BME280;58635;51.198;6.010;2023-03-25T02:56:47;100158.81;;;12.33;59.39
70976;BME280;58635;51.198;6.010;2023-03-25T02:59:17;100149.88;;;12.28;59.58
70976;BME280;58635;51.198;6.010;2023-03-25T03:01:43;100146.88;;;12.32;59.54
70976;BME280;58635;51.198;6.010;2023-03-25T03:04:09;100145.72;;;12.27;59.62
70976;BME280;58635;51.198;6.010;2023-03-25T03:06:38;100141.53;;;12.26;59.64
70976;BME280;58635;51.198;6.010;2023-03-25T03:16:57;100147.47;;;12.15;59.29
70976;BME280;58635;51.198;6.010;2023-03-25T03:19:50;100140.47;;;12.16;59.21
70976;BME280;58635;51.198;6.010;2023-03-25T03:27:51;100142.53;;;12.25;59.09
70976;BME280;58635;51.198;6.010;2023-03-25T03:30:34;100140.19;;;12.24;59.21
70976;BME280;58635;51.198;6.010;2023-03-25T03:35:57;100131.94;;;12.27;59.17
70976;BME280;58635;51.198;6.010;2023-03-25T03:38:30;100125.97;;;12.26;59.42
70976;BME280;58635;51.198;6.010;2023-03-25T03:41:01;100130.16;;;12.27;59.24
70976;BME280;58635;51.198;6.010;2023-03-25T03:43:44;100125.19;;;12.26;59.29
70976;BME280;58635;51.198;6.010;2023-03-25T03:46:15;100131.03;;;12.21;59.23
70976;BME280;58635;51.198;6.010;2023-03-25T03:48:51;100125.84;;;12.21;59.04
70976;BME280;58635;51.198;6.010;2023-03-25T03:51:22;100144.13;;;12.26;59.01
70976;BME280;58635;51.198;6.010;2023-03-25T03:54:02;100129.59;;;12.25;58.89
70976;BME280;58635;51.198;6.010;2023-03-25T03:56:34;100130.59;;;12.24;58.92
70976;BME280;58635;51.198;6.010;2023-03-25T03:59:05;100137.00;;;12.22;59.16
70976;BME280;58635;51.198;6.010;2023-03-25T04:01:46;100141.97;;;12.23;58.72
70976;BME280;58635;51.198;6.010;2023-03-25T04:04:19;100134.66;;;12.20;58.31
70976;BME280;58635;51.198;6.010;2023-03-25T04:07:00;100130.25;;;12.21;58.25
70976;BME280;58635;51.198;6.010;2023-03-25T04:09:32;100140.81;;;12.19;58.29
70976;BME280;58635;51.198;6.010;2023-03-25T04:12:08;100133.03;;;12.19;58.31
70976;BME280;58635;51.198;6.010;2023-03-25T04:14:36;100138.59;;;12.23;58.06
70976;BME280;58635;51.198;6.010;2023-03-25T04:17:04;100133.53;;;12.28;57.85
70976;BME280;58635;51.198;6.010;2023-03-25T04:19:29;100133.53;;;12.28;57.92
70976;BME280;58635;51.198;6.010;2023-03-25T04:21:58;100153.03;;;12.30;57.55
70976;BME280;58635;51.198;6.010;2023-03-25T04:24:26;100146.28;;;12.29;57.62
70976;BME280;58635;51.198;6.010;2023-03-25T04:26:59;100150.03;;;12.34;57.75
70976;BME280;58635;51.198;6.010;2023-03-25T04:29:32;100138.50;;;12.29;57.76
70976;BME280;58635;51.198;6.010;2023-03-25T04:31:59;100154.28;;;12.28;58.21
70976;BME280;58635;51.198;6.010;2023-03-25T04:34:25;100154.28;;;12.28;58.69
70976;BME280;58635;51.198;6.010;2023-03-25T04:36:51;100148.88;;;12.29;58.53
70976;BME280;58635;51.198;6.010;2023-03-25T04:39:18;100143.91;;;12.28;58.51
70976;BME280;58635;51.198;6.010;2023-03-25T04:41:51;100139.28;;;12.30;58.43
70976;BME280;58635;51.198;6.010;2023-03-25T04:44:21;100143.91;;;12.28;58.60
70976;BME280;58635;51.198;6.010;2023-03-25T04:46:50;100145.13;;;12.25;58.55
70976;BME280;58635;51.198;6.010;2023-03-25T04:49:20;100147.16;;;12.23;58.21
70976;BME280;58635;51.198;6.010;2023-03-25T04:51:47;100140.25;;;12.17;58.51
70976;BME280;58635;51.198;6.010;2023-03-25T04:54:18;100150.06;;;12.15;58.43
70976;BME280;58635;51.198;6.010;2023-03-25T04:56:45;100143.28;;;12.14;58.48
70976;BME280;58635;51.198;6.010;2023-03-25T04:59:12;100159.06;;;12.13;58.53
70976;BME280;58635;51.198;6.010;2023-03-25T05:01:38;100147.34;;;12.10;58.78
70976;BME280;58635;51.198;6.010;2023-03-25T05:04:07;100153.31;;;12.11;58.62
70976;BME280;58635;51.198;6.010;2023-03-25T05:06:37;100155.13;;;12.10;58.86
70976;BME280;58635;51.198;6.010;2023-03-25T05:09:05;100158.72;;;12.09;59.10
70976;BME280;58635;51.198;6.010;2023-03-25T05:11:32;100156.53;;;12.06;59.10
70976;BME280;58635;51.198;6.010;2023-03-25T05:13:58;100150.94;;;12.09;59.21
70976;BME280;58635;51.198;6.010;2023-03-25T05:16:23;100152.31;;;12.12;59.08
70976;BME280;58635;51.198;6.010;2023-03-25T05:18:49;100154.31;;;12.10;58.92
70976;BME280;58635;51.198;6.010;2023-03-25T05:21:15;100158.28;;;12.12;59.00
70976;BME280;58635;51.198;6.010;2023-03-25T05:23:40;100163.47;;;12.12;58.93
70976;BME280;58635;51.198;6.010;2023-03-25T05:26:06;100161.66;;;12.13;58.81
70976;BME280;58635;51.198;6.010;2023-03-25T05:28:32;100167.84;;;12.12;58.73
70976;BME280;58635;51.198;6.010;2023-03-25T05:30:58;100185.56;;;12.15;59.08
70976;BME280;58635;51.198;6.010;2023-03-25T05:33:23;100179.13;;;12.17;59.25
70976;BME280;58635;51.198;6.010;2023-03-25T05:35:48;100174.97;;;12.16;59.21
70976;BME280;58635;51.198;6.010;2023-03-25T05:38:15;100179.00;;;12.12;59.54
70976;BME280;58635;51.198;6.010;2023-03-25T05:40:44;100180.38;;;12.15;59.43
70976;BME280;58635;51.198;6.010;2023-03-25T05:43:11;100182.97;;;12.15;59.31
70976;BME280;58635;51.198;6.010;2023-03-25T05:45:37;100173.81;;;12.12;59.51
70976;BME280;58635;51.198;6.010;2023-03-25T05:48:03;100178.22;;;12.12;59.55
70976;BME280;58635;51.198;6.010;2023-03-25T05:50:29;100177.22;;;12.13;59.41
70976;BME280;58635;51.198;6.010;2023-03-25T05:52:55;100184.75;;;12.14;59.29
70976;BME280;58635;51.198;6.010;2023-03-25T05:55:22;100180.38;;;12.15;59.90
70976;BME280;58635;51.198;6.010;2023-03-25T05:57:48;100190.28;;;12.18;60.19
70976;BME280;58635;51.198;6.010;2023-03-25T06:00:15;100189.72;;;12.16;60.71
70976;BME280;58635;51.198;6.010;2023-03-25T06:02:43;100182.63;;;12.11;61.35
70976;BME280;58635;51.198;6.010;2023-03-25T06:05:10;100189.44;;;12.06;61.65
70976;BME280;58635;51.198;6.010;2023-03-25T06:07:39;100179.75;;;12.01;61.86
70976;BME280;58635;51.198;6.010;2023-03-25T06:10:10;100189.09;;;12.02;62.02
70976;BME280;58635;51.198;6.010;2023-03-25T06:12:37;100195.63;;;12.05;62.28
70976;BME280;58635;51.198;6.010;2023-03-25T06:15:07;100192.03;;;12.06;62.11
70976;BME280;58635;51.198;6.010;2023-03-25T06:17:33;100201.38;;;12.07;62.03
70976;BME280;58635;51.198;6.010;2023-03-25T06:20:06;100190.59;;;12.10;62.07
70976;BME280;58635;51.198;6.010;2023-03-25T06:22:36;100192.03;;;12.06;62.04
70976;BME280;58635;51.198;6.010;2023-03-25T06:25:02;100191.97;;;12.12;61.76
70976;BME280;58635;51.198;6.010;2023-03-25T06:27:27;100184.88;;;12.19;61.84
70976;BME280;58635;51.198;6.010;2023-03-25T06:29:52;100182.66;;;12.23;61.39
70976;BME280;58635;51.198;6.010;2023-03-25T06:32:18;100187.84;;;12.23;61.20
70976;BME280;58635;51.198;6.010;2023-03-25T06:34:43;100187.63;;;12.24;61.20
70976;BME280;58635;51.198;6.010;2023-03-25T06:37:09;100190.78;;;12.26;60.88
70976;BME280;58635;51.198;6.010;2023-03-25T06:39:35;100194.97;;;12.27;60.99
70976;BME280;58635;51.198;6.010;2023-03-25T06:42:03;100188.69;;;12.35;60.46
70976;BME280;58635;51.198;6.010;2023-03-25T06:44:29;100188.25;;;12.38;60.26
70976;BME280;58635;51.198;6.010;2023-03-25T06:46:55;100198.78;;;12.43;60.13
70976;BME280;58635;51.198;6.010;2023-03-25T06:49:20;100194.38;;;12.44;59.79
70976;BME280;58635;51.198;6.010;2023-03-25T06:51:46;100205.97;;;12.41;59.70
70976;BME280;58635;51.198;6.010;2023-03-25T06:54:12;100202.97;;;12.44;59.50
70976;BME280;58635;51.198;6.010;2023-03-25T06:56:37;100206.34;;;12.45;59.36
70976;BME280;58635;51.198;6.010;2023-03-25T06:59:03;100202.16;;;12.44;59.23
70976;BME280;58635;51.198;6.010;2023-03-25T07:01:29;100207.47;;;12.49;59.18
70976;BME280;58635;51.198;6.010;2023-03-25T07:03:54;100209.41;;;12.53;58.57
70976;BME280;58635;51.198;6.010;2023-03-25T07:06:21;100207.81;;;12.52;58.01
70976;BME280;58635;51.198;6.010;2023-03-25T07:08:47;100210.41;;;12.52;57.79
70976;BME280;58635;51.198;6.010;2023-03-25T07:11:14;100209.19;;;12.55;57.68
70976;BME280;58635;51.198;6.010;2023-03-25T07:13:40;100218.56;;;12.56;57.34
70976;BME280;58635;51.198;6.010;2023-03-25T07:16:07;100226.25;;;12.63;57.15
70976;BME280;58635;51.198;6.010;2023-03-25T07:18:32;100221.41;;;12.66;57.00
70976;BME280;58635;51.198;6.010;2023-03-25T07:20:58;100212.75;;;12.72;57.16
70976;BME280;58635;51.198;6.010;2023-03-25T07:23:24;100220.00;;;12.82;56.92
70976;BME280;58635;51.198;6.010;2023-03-25T07:25:49;100214.13;;;12.86;56.79
70976;BME280;58635;51.198;6.010;2023-03-25T07:28:15;100214.28;;;12.92;56.18
70976;BME280;58635;51.198;6.010;2023-03-25T07:30:40;100221.38;;;12.96;56.31
70976;BME280;58635;51.198;6.010;2023-03-25T07:33:06;100229.75;;;12.98;56.17
70976;BME280;58635;51.198;6.010;2023-03-25T07:35:31;100220.38;;;12.97;56.33
70976;BME280;58635;51.198;6.010;2023-03-25T07:37:56;100216.31;;;13.01;56.16
70976;BME280;58635;51.198;6.010;2023-03-25T07:40:22;100216.22;;;13.08;56.22
70976;BME280;58635;51.198;6.010;2023-03-25T07:42:47;100226.72;;;13.13;56.00
70976;BME280;58635;51.198;6.010;2023-03-25T07:45:13;100218.88;;;13.20;55.91
70976;BME280;58635;51.198;6.010;2023-03-25T07:47:38;100210.16;;;13.26;55.71
70976;BME280;58635;51.198;6.010;2023-03-25T07:50:04;100225.44;;;13.34;55.38
70976;BME280;58635;51.198;6.010;2023-03-25T07:52:30;100223.16;;;13.37;55.02
70976;BME280;58635;51.198;6.010;2023-03-25T07:54:55;100212.34;;;13.40;54.93
70976;BME280;58635;51.198;6.010;2023-03-25T07:57:21;100223.97;;;13.50;54.84
70976;BME280;58635;51.198;6.010;2023-03-25T07:59:46;100227.38;;;13.50;54.70
70976;BME280;58635;51.198;6.010;2023-03-25T08:02:12;100236.53;;;13.53;54.69
70976;BME280;58635;51.198;6.010;2023-03-25T08:04:38;100234.94;;;13.52;54.53
70976;BME280;58635;51.198;6.010;2023-03-25T08:07:03;100228.38;;;13.49;54.36
70976;BME280;58635;51.198;6.010;2023-03-25T08:09:29;100232.78;;;13.49;54.47
70976;BME280;58635;51.198;6.010;2023-03-25T08:11:55;100235.50;;;13.54;54.54
70976;BME280;58635;51.198;6.010;2023-03-25T08:14:21;100241.81;;;13.58;54.65
70976;BME280;58635;51.198;6.010;2023-03-25T08:16:46;100230.06;;;13.67;54.01
70976;BME280;58635;51.198;6.010;2023-03-25T08:19:11;100250.16;;;13.71;54.07
70976;BME280;58635;51.198;6.010;2023-03-25T08:21:37;100237.31;;;13.77;54.01
70976;BME280;58635;51.198;6.010;2023-03-25T08:24:02;100236.16;;;13.84;53.82
70976;BME280;58635;51.198;6.010;2023-03-25T08:26:30;100239.41;;;14.03;53.85
70976;BME280;58635;51.198;6.010;2023-03-25T08:28:56;100236.88;;;14.20;53.15
70976;BME280;58635;51.198;6.010;2023-03-25T08:31:25;100244.66;;;14.31;52.73
70976;BME280;58635;51.198;6.010;2023-03-25T08:33:58;100236.81;;;14.43;52.57
70976;BME280;58635;51.198;6.010;2023-03-25T08:36:24;100241.91;;;14.50;52.38
70976;BME280;58635;51.198;6.010;2023-03-25T08:38:50;100239.75;;;14.58;52.21
70976;BME280;58635;51.198;6.010;2023-03-25T08:41:16;100238.00;;;14.64;51.85
70976;BME280;58635;51.198;6.010;2023-03-25T08:43:41;100249.75;;;14.67;51.54
70976;BME280;58635;51.198;6.010;2023-03-25T08:46:07;100232.81;;;14.64;51.61
70976;BME280;58635;51.198;6.010;2023-03-25T08:48:32;100238.91;;;14.70;51.29
70976;BME280;58635;51.198;6.010;2023-03-25T08:50:58;100256.91;;;14.71;51.12
70976;BME280;58635;51.198;6.010;2023-03-25T08:53:24;100255.41;;;14.75;51.04
70976;BME280;58635;51.198;6.010;2023-03-25T08:55:51;100251.22;;;14.74;51.05
70976;BME280;58635;51.198;6.010;2023-03-25T08:58:17;100256.19;;;14.76;51.03
70976;BME280;58635;51.198;6.010;2023-03-25T09:00:43;100260.38;;;14.77;50.67
70976;BME280;58635;51.198;6.010;2023-03-25T09:03:08;100272.41;;;14.66;50.73
70976;BME280;58635;51.198;6.010;2023-03-25T09:05:36;100258.19;;;14.57;50.69
70976;BME280;58635;51.198;6.010;2023-03-25T09:08:02;100246.09;;;14.51;51.01
70976;BME280;58635;51.198;6.010;2023-03-25T09:10:28;100250.75;;;14.49;51.31
70976;BME280;58635;51.198;6.010;2023-03-25T09:12:53;100262.75;;;14.50;51.38
70976;BME280;58635;51.198;6.010;2023-03-25T09:15:19;100257.31;;;14.51;51.54
70976;BME280;58635;51.198;6.010;2023-03-25T09:17:45;100249.25;;;14.53;51.33
70976;BME280;58635;51.198;6.010;2023-03-25T09:20:10;100253.91;;;14.51;51.27
70976;BME280;58635;51.198;6.010;2023-03-25T09:22:37;100258.00;;;14.47;51.35
70976;BME280;58635;51.198;6.010;2023-03-25T09:25:03;100259.59;;;14.48;51.39
70976;BME280;58635;51.198;6.010;2023-03-25T09:27:30;100268.81;;;14.44;51.46
70976;BME280;58635;51.198;6.010;2023-03-25T09:29:56;100254.47;;;14.41;51.67
70976;BME280;58635;51.198;6.010;2023-03-25T09:32:21;100265.44;;;14.43;51.44
70976;BME280;58635;51.198;6.010;2023-03-25T09:34:47;100268.03;;;14.43;51.47
70976;BME280;58635;51.198;6.010;2023-03-25T09:37:12;100273.84;;;14.45;51.58
70976;BME280;58635;51.198;6.010;2023-03-25T09:39:37;100278.91;;;14.52;51.72
70976;BME280;58635;51.198;6.010;2023-03-25T09:44:52;100279.94;;;14.79;51.38
70976;BME280;58635;51.198;6.010;2023-03-25T09:47:20;100275.81;;;14.95;51.26
70976;BME280;58635;51.198;6.010;2023-03-25T09:49:50;100276.44;;;15.02;51.02
70976;BME280;58635;51.198;6.010;2023-03-25T09:52:33;100280.84;;;15.02;51.04
70976;BME280;58635;51.198;6.010;2023-03-25T09:55:07;100292.41;;;15.06;51.50
70976;BME280;58635;51.198;6.010;2023-03-25T09:57:42;100293.41;;;15.05;51.81
70976;BME280;58635;51.198;6.010;2023-03-25T10:00:16;100294.44;;;15.04;51.68
70976;BME280;58635;51.198;6.010;2023-03-25T10:02:50;100299.31;;;15.00;51.76
70976;BME280;58635;51.198;6.010;2023-03-25T10:08:25;100296.16;;;14.98;52.25
70976;BME280;58635;51.198;6.010;2023-03-25T10:11:06;100295.50;;;14.91;52.76
70976;BME280;58635;51.198;6.010;2023-03-25T10:13:39;100294.63;;;14.85;53.14
70976;BME280;58635;51.198;6.010;2023-03-25T10:23:49;100285.44;;;14.54;53.94
70976;BME280;58635;51.198;6.010;2023-03-25T10:26:42;100283.31;;;14.51;53.17
70976;BME280;58635;51.198;6.010;2023-03-25T10:29:13;100287.84;;;14.44;53.17
70976;BME280;58635;51.198;6.010;2023-03-25T10:31:45;100284.81;;;14.47;53.25
70976;BME280;58635;51.198;6.010;2023-03-25T10:34:16;100278.44;;;14.55;53.21
70976;BME280;58635;51.198;6.010;2023-03-25T10:36:53;100277.94;;;14.70;52.52
70976;BME280;58635;51.198;6.010;2023-03-25T10:39:23;100279.50;;;14.82;52.44
70976;BME280;58635;51.198;6.010;2023-03-25T10:41:58;100288.03;;;14.95;51.30
70976;BME280;58635;51.198;6.010;2023-03-25T10:44:25;100304.09;;;14.91;51.62
70976;BME280;58635;51.198;6.010;2023-03-25T10:46:59;100300.72;;;14.91;51.91
70976;BME280;58635;51.198;6.010;2023-03-25T10:49:29;100301.50;;;14.91;52.18
70976;BME280;58635;51.198;6.010;2023-03-25T10:51:55;100311.88;;;15.03;52.29
70976;BME280;58635;51.198;6.010;2023-03-25T10:54:27;100308.03;;;15.06;52.35
70976;BME280;58635;51.198;6.010;2023-03-25T10:57:06;100306.44;;;15.05;52.77
70976;BME280;58635;51.198;6.010;2023-03-25T10:59:40;100304.41;;;15.07;53.15
70976;BME280;58635;51.198;6.010;2023-03-25T11:02:21;100308.56;;;15.08;52.88
70976;BME280;58635;51.198;6.010;2023-03-25T11:04:52;100300.53;;;15.09;52.87
70976;BME280;58635;51.198;6.010;2023-03-25T11:07:24;100320.88;;;15.12;52.52
70976;BME280;58635;51.198;6.010;2023-03-25T11:09:51;100332.00;;;15.08;52.44
70976;BME280;58635;51.198;6.010;2023-03-25T11:12:18;100344.78;;;14.93;52.81
70976;BME280;58635;51.198;6.010;2023-03-25T11:14:53;100348.31;;;14.75;53.37
70976;BME280;58635;51.198;6.010;2023-03-25T11:17:19;100355.38;;;14.62;53.80
70976;BME280;58635;51.198;6.010;2023-03-25T11:19:55;100368.72;;;14.54;54.00
70976;BME280;58635;51.198;6.010;2023-03-25T11:22:27;100378.56;;;14.41;54.41
70976;BME280;58635;51.198;6.010;2023-03-25T11:25:05;100365.09;;;14.32;54.15
70976;BME280;58635;51.198;6.010;2023-03-25T11:27:39;100360.28;;;14.24;54.04
70976;BME280;58635;51.198;6.010;2023-03-25T11:30:14;100372.47;;;14.23;54.75
70976;BME280;58635;51.198;6.010;2023-03-25T11:32:40;100373.50;;;14.34;54.72
70976;BME280;58635;51.198;6.010;2023-03-25T11:35:17;100364.00;;;14.51;54.95
70976;BME280;58635;51.198;6.010;2023-03-25T11:37:54;100344.50;;;14.66;55.06
70976;BME280;58635;51.198;6.010;2023-03-25T11:40:20;100359.69;;;14.69;55.15
70976;BME280;58635;51.198;6.010;2023-03-25T11:42:52;100359.31;;;14.65;54.99
70976;BME280;58635;51.198;6.010;2023-03-25T11:45:23;100359.31;;;14.65;55.10
70976;BME280;58635;51.198;6.010;2023-03-25T11:47:51;100356.03;;;14.70;55.22
70976;BME280;58635;51.198;6.010;2023-03-25T11:50:20;100352.28;;;14.77;55.62
70976;BME280;58635;51.198;6.010;2023-03-25T11:52:46;100359.41;;;14.82;55.66
70976;BME280;58635;51.198;6.010;2023-03-25T11:55:40;100346.28;;;14.77;55.76
70976;BME280;58635;51.198;6.010;2023-03-25T11:58:14;100341.53;;;14.74;55.86
70976;BME280;58635;51.198;6.010;2023-03-25T12:00:45;100343.25;;;14.68;56.00
70976;BME280;58635;51.198;6.010;2023-03-25T12:05:38;100343.94;;;14.63;55.97
70976;BME280;58635;51.198;6.010;2023-03-25T12:08:15;100331.81;;;14.69;56.22
70976;BME280;58635;51.198;6.010;2023-03-25T12:10:52;100332.34;;;14.83;56.37
70976;BME280;58635;51.198;6.010;2023-03-25T12:13:37;100325.34;;;15.00;56.22
70976;BME280;58635;51.198;6.010;2023-03-25T12:16:43;100321.72;;;15.30;55.95
70976;BME280;58635;51.198;6.010;2023-03-25T12:27:52;100342.78;;;15.28;55.51
70976;BME280;58635;51.198;6.010;2023-03-25T12:33:39;100364.53;;;15.05;56.17
70976;BME280;58635;51.198;6.010;2023-03-25T12:41:48;100355.03;;;14.71;56.33
70976;BME280;58635;51.198;6.010;2023-03-25T12:47:49;100385.03;;;14.50;56.52
70976;BME280;58635;51.198;6.010;2023-03-25T12:50:19;100368.28;;;14.34;56.72
70976;BME280;58635;51.198;6.010;2023-03-25T12:52:53;100342.41;;;14.16;56.99
70976;BME280;58635;51.198;6.010;2023-03-25T13:08:54;100345.22;;;15.18;57.41
70976;BME280;58635;51.198;6.010;2023-03-25T13:11:24;100336.56;;;15.46;57.06
70976;BME280;58635;51.198;6.010;2023-03-25T13:13:54;100326.25;;;15.68;56.62
70976;BME280;58635;51.198;6.010;2023-03-25T13:16:24;100337.63;;;15.78;56.59
70976;BME280;58635;51.198;6.010;2023-03-25T13:19:01;100331.94;;;15.98;55.97
70976;BME280;58635;51.198;6.010;2023-03-25T13:21:31;100316.41;;;16.08;55.70
70976;BME280;58635;51.198;6.010;2023-03-25T13:24:06;100319.13;;;16.19;55.43
70976;BME280;58635;51.198;6.010;2023-03-25T13:26:36;100319.81;;;16.31;54.66
70976;BME280;58635;51.198;6.010;2023-03-25T13:29:25;100321.78;;;16.41;54.59
70976;BME280;58635;51.198;6.010;2023-03-25T13:31:55;100326.81;;;16.47;54.22
70976;BME280;58635;51.198;6.010;2023-03-25T13:34:26;100324.47;;;16.46;54.36
70976;BME280;58635;51.198;6.010;2023-03-25T13:37:35;100316.53;;;16.41;53.68
70976;BME280;58635;51.198;6.010;2023-03-25T13:46:05;100335.59;;;16.19;53.79
70976;BME280;58635;51.198;6.010;2023-03-25T13:48:50;100322.00;;;16.17;54.63
70976;BME280;58635;51.198;6.010;2023-03-25T13:51:18;100321.22;;;16.17;54.16
70976;BME280;58635;51.198;6.010;2023-03-25T13:53:53;100311.06;;;16.20;54.25
70976;BME280;58635;51.198;6.010;2023-03-25T14:12:38;100344.19;;;15.81;53.92
70976;BME280;58635;51.198;6.010;2023-03-25T14:15:20;100336.75;;;15.73;54.24
70976;BME280;58635;51.198;6.010;2023-03-25T14:17:47;100337.16;;;15.65;54.46
70976;BME280;58635;51.198;6.010;2023-03-25T14:20:23;100331.22;;;15.53;54.63
70976;BME280;58635;51.198;6.010;2023-03-25T14:22:55;100317.91;;;15.37;54.95
70976;BME280;58635;51.198;6.010;2023-03-25T14:25:39;100328.16;;;15.27;55.41
70976;BME280;58635;51.198;6.010;2023-03-25T14:28:10;100333.78;;;15.19;55.61
70976;BME280;58635;51.198;6.010;2023-03-25T14:30:37;100313.72;;;15.19;55.79
70976;BME280;58635;51.198;6.010;2023-03-25T14:33:04;100308.34;;;15.26;55.92
70976;BME280;58635;51.198;6.010;2023-03-25T14:43:23;100345.41;;;15.28;53.51
70976;BME280;58635;51.198;6.010;2023-03-25T14:48:32;100345.84;;;15.25;53.92
70976;BME280;58635;51.198;6.010;2023-03-25T14:51:58;100340.25;;;15.16;54.21
70976;BME280;58635;51.198;6.010;2023-03-25T14:56:41;100338.44;;;15.17;54.54
70976;BME280;58635;51.198;6.010;2023-03-25T14:59:16;100332.38;;;15.28;54.60
70976;BME280;58635;51.198;6.010;2023-03-25T15:01:44;100327.78;;;15.35;54.29
70976;BME280;58635;51.198;6.010;2023-03-25T15:04:43;100324.00;;;15.43;53.95
70976;BME280;58635;51.198;6.010;2023-03-25T15:07:17;100337.44;;;15.52;54.17
70976;BME280;58635;51.198;6.010;2023-03-25T15:09:49;100344.50;;;15.68;54.21